sensor_id;sensor_type;location;lat;lon;timestamp;pressure;altitude;pressure_sealevel;temperature;humidity
5413;BME280;2729;50.056;8.678;2022-09-28T00:01:23;98435.03;;;11.51;100.00
5413;BME280;2729;50.056;8.678;2022-09-28T00:03:51;98429.72;;;11.53;100.00
5413;BME280;2729;50.056;8.678;2022-09-28T00:06:19;98415.56;;;11.57;100.00
5413;BME280;2729;50.056;8.678;2022-09-28T00:08:45;98406.78;;;11.58;100.00
5413;BME280;2729;50.056;8.678;2022-09-28T00:11:13;98411.09;;;11.29;100.00
5413;BME280;2729;50.056;8.678;2022-09-28T00:13:41;98401.75;;;11.55;100.00
5413;BME280;2729;50.056;8.678;2022-09-28T00:16:13;98395.94;;;11.50;100.00
5413;BME280;2729;50.056;8.678;2022-09-28T00:18:39;98394.91;;;11.38;100.00
5413;BME280;2729;50.056;8.678;2022-09-28T00:21:11;98383.25;;;11.44;100.00
5413;BME280;2729;50.056;8.678;2022-09-28T00:23:38;98381.13;;;11.65;100.00
5413;BME280;2729;50.056;8.678;2022-09-28T00:26:25;98369.13;;;11.32;100.00
5413;BME280;2729;50.056;8.678;2022-09-28T00:28:53;98363.19;;;11.44;100.00
5413;BME280;2729;50.056;8.678;2022-09-28T00:31:20;98365.38;;;11.66;100.00
5413;BME280;2729;50.056;8.678;2022-09-28T00:33:52;98366.22;;;11.67;100.00
5413;BME280;2729;50.056;8.678;2022-09-28T00:36:18;98371.63;;;11.64;100.00
5413;BME280;2729;50.056;8.678;2022-09-28T00:38:44;98358.88;;;11.29;100.00
5413;BME280;2729;50.056;8.678;2022-09-28T00:41:11;98338.06;;;11.27;100.00
5413;BME280;2729;50.056;8.678;2022-09-28T00:43:37;98338.09;;;11.42;100.00
5413;BME280;2729;50.056;8.678;2022-09-28T00:46:08;98342.66;;;11.38;100.00
5413;BME280;2729;50.056;8.678;2022-09-28T00:48:38;98340.53;;;11.45;100.00
5413;BME280;2729;50.056;8.678;2022-09-28T00:51:08;98337.44;;;11.38;100.00
5413;BME280;2729;50.056;8.678;2022-09-28T00:53:37;98324.19;;;11.41;100.00
5413;BME280;2729;50.056;8.678;2022-09-28T00:56:08;98325.41;;;11.50;100.00
5413;BME280;2729;50.056;8.678;2022-09-28T00:58:39;98317.94;;;11.44;100.00
5413;BME280;2729;50.056;8.678;2022-09-28T01:01:06;98308.53;;;11.55;100.00
5413;BME280;2729;50.056;8.678;2022-09-28T01:03:32;98306.66;;;11.72;100.00
5413;BME280;2729;50.056;8.678;2022-09-28T01:06:02;98300.41;;;11.60;100.00
5413;BME280;2729;50.056;8.678;2022-09-28T01:08:30;98298.00;;;11.57;100.00
5413;BME280;2729;50.056;8.678;2022-09-28T01:10:58;98292.19;;;11.52;100.00
5413;BME280;2729;50.056;8.678;2022-09-28T01:13:26;98282.03;;;11.62;100.00
5413;BME280;2729;50.056;8.678;2022-09-28T01:18:34;98264.59;;;11.62;100.00
5413;BME280;2729;50.056;8.678;2022-09-28T01:21:09;98258.97;;;11.68;100.00
5413;BME280;2729;50.056;8.678;2022-09-28T01:26:51;98271.28;;;11.66;100.00
5413;BME280;2729;50.056;8.678;2022-09-28T01:32:12;98257.56;;;11.77;100.00
5413;BME280;2729;50.056;8.678;2022-09-28T01:35:08;98254.50;;;11.42;100.00
5413;BME280;2729;50.056;8.678;2022-09-28T01:37:45;98260.94;;;11.36;100.00
5413;BME280;2729;50.056;8.678;2022-09-28T01:40:12;98259.28;;;11.49;100.00
5413;BME280;2729;50.056;8.678;2022-09-28T01:42:43;98249.28;;;11.56;100.00
5413;BME280;2729;50.056;8.678;2022-09-28T01:45:17;98241.63;;;11.53;100.00
5413;BME280;2729;50.056;8.678;2022-09-28T01:47:46;98243.88;;;11.59;100.00
5413;BME280;2729;50.056;8.678;2022-09-28T01:50:17;98236.97;;;11.58;100.00
5413;BME280;2729;50.056;8.678;2022-09-28T01:52:50;98241.53;;;11.69;100.00
5413;BME280;2729;50.056;8.678;2022-09-28T01:55:56;98234.91;;;11.35;100.00
5413;BME280;2729;50.056;8.678;2022-09-28T01:58:31;98230.72;;;11.60;100.00
5413;BME280;2729;50.056;8.678;2022-09-28T02:01:04;98233.78;;;11.67;100.00
5413;BME280;2729;50.056;8.678;2022-09-28T02:03:49;98230.94;;;11.99;100.00
5413;BME280;2729;50.056;8.678;2022-09-28T02:06:23;98223.88;;;11.86;100.00
5413;BME280;2729;50.056;8.678;2022-09-28T02:08:55;98223.88;;;11.86;100.00
5413;BME280;2729;50.056;8.678;2022-09-28T02:11:36;98214.00;;;11.77;100.00
5413;BME280;2729;50.056;8.678;2022-09-28T02:14:04;98222.22;;;11.85;100.00
5413;BME280;2729;50.056;8.678;2022-09-28T02:16:43;98214.56;;;11.68;100.00
5413;BME280;2729;50.056;8.678;2022-09-28T02:19:12;98212.50;;;11.73;100.00
5413;BME280;2729;50.056;8.678;2022-09-28T02:24:37;98202.88;;;11.74;100.00
5413;BME280;2729;50.056;8.678;2022-09-28T02:27:16;98201.41;;;11.84;100.00
5413;BME280;2729;50.056;8.678;2022-09-28T02:29:44;98195.72;;;11.77;100.00
5413;BME280;2729;50.056;8.678;2022-09-28T02:32:10;98198.19;;;11.93;100.00
5413;BME280;2729;50.056;8.678;2022-09-28T02:34:36;98196.63;;;11.76;100.00
5413;BME280;2729;50.056;8.678;2022-09-28T02:37:02;98205.03;;;11.81;100.00
5413;BME280;2729;50.056;8.678;2022-09-28T02:39:28;98202.31;;;11.83;100.00
5413;BME280;2729;50.056;8.678;2022-09-28T02:42:02;98240.69;;;11.54;100.00
5413;BME280;2729;50.056;8.678;2022-09-28T02:44:47;98230.44;;;11.08;100.00
5413;BME280;2729;50.056;8.678;2022-09-28T02:47:30;98220.44;;;11.01;100.00
5413;BME280;2729;50.056;8.678;2022-09-28T02:53:15;98230.59;;;10.91;100.00
5413;BME280;2729;50.056;8.678;2022-09-28T02:56:27;98216.06;;;10.87;100.00
5413;BME280;2729;50.056;8.678;2022-09-28T02:59:30;98213.47;;;11.15;100.00
5413;BME280;2729;50.056;8.678;2022-09-28T03:02:10;98210.38;;;11.09;100.00
5413;BME280;2729;50.056;8.678;2022-09-28T03:05:12;98200.41;;;11.15;100.00
5413;BME280;2729;50.056;8.678;2022-09-28T03:10:29;98208.53;;;11.11;100.00
5413;BME280;2729;50.056;8.678;2022-09-28T03:12:58;98202.28;;;11.13;100.00
5413;BME280;2729;50.056;8.678;2022-09-28T03:15:30;98199.75;;;11.26;100.00
5413;BME280;2729;50.056;8.678;2022-09-28T03:17:57;98202.94;;;11.17;100.00
5413;BME280;2729;50.056;8.678;2022-09-28T03:20:24;98199.75;;;11.12;100.00
5413;BME280;2729;50.056;8.678;2022-09-28T03:22:50;98207.13;;;11.05;100.00
5413;BME280;2729;50.056;8.678;2022-09-28T03:25:16;98209.00;;;11.17;100.00
5413;BME280;2729;50.056;8.678;2022-09-28T03:27:42;98211.69;;;11.02;100.00
5413;BME280;2729;50.056;8.678;2022-09-28T03:30:10;98206.00;;;11.09;100.00
5413;BME280;2729;50.056;8.678;2022-09-28T03:32:38;98212.72;;;11.13;100.00
5413;BME280;2729;50.056;8.678;2022-09-28T03:35:05;98207.13;;;11.19;100.00
5413;BME280;2729;50.056;8.678;2022-09-28T03:37:32;98208.06;;;11.04;100.00
5413;BME280;2729;50.056;8.678;2022-09-28T03:39:58;98214.22;;;11.03;100.00
5413;BME280;2729;50.056;8.678;2022-09-28T03:42:24;98208.91;;;11.05;100.00
5413;BME280;2729;50.056;8.678;2022-09-28T03:44:50;98209.53;;;10.94;100.00
5413;BME280;2729;50.056;8.678;2022-09-28T03:47:16;98204.06;;;11.13;100.00
5413;BME280;2729;50.056;8.678;2022-09-28T03:49:44;98209.72;;;11.05;100.00
5413;BME280;2729;50.056;8.678;2022-09-28T03:52:12;98207.78;;;11.09;100.00
5413;BME280;2729;50.056;8.678;2022-09-28T03:54:38;98200.88;;;11.22;100.00
5413;BME280;2729;50.056;8.678;2022-09-28T03:57:05;98198.63;;;11.30;100.00
5413;BME280;2729;50.056;8.678;2022-09-28T03:59:31;98201.16;;;11.32;100.00
5413;BME280;2729;50.056;8.678;2022-09-28T04:01:57;98202.84;;;11.33;100.00
5413;BME280;2729;50.056;8.678;2022-09-28T04:04:23;98201.53;;;11.11;100.00
5413;BME280;2729;50.056;8.678;2022-09-28T04:06:49;98204.50;;;11.05;100.00
5413;BME280;2729;50.056;8.678;2022-09-28T04:09:15;98201.63;;;11.10;100.00
5413;BME280;2729;50.056;8.678;2022-09-28T04:11:41;98203.28;;;10.97;100.00
5413;BME280;2729;50.056;8.678;2022-09-28T04:14:07;98200.50;;;11.00;100.00
5413;BME280;2729;50.056;8.678;2022-09-28T04:16:33;98201.97;;;10.89;100.00
5413;BME280;2729;50.056;8.678;2022-09-28T04:19:09;98206.81;;;10.81;100.00
5413;BME280;2729;50.056;8.678;2022-09-28T04:21:37;98208.19;;;10.73;100.00
5413;BME280;2729;50.056;8.678;2022-09-28T04:24:09;98215.59;;;10.94;100.00
5413;BME280;2729;50.056;8.678;2022-09-28T04:26:36;98212.47;;;10.74;100.00
5413;BME280;2729;50.056;8.678;2022-09-28T04:29:02;98213.66;;;10.54;100.00
5413;BME280;2729;50.056;8.678;2022-09-28T04:31:47;98217.88;;;10.71;100.00
5413;BME280;2729;50.056;8.678;2022-09-28T04:34:16;98221.28;;;10.57;100.00
5413;BME280;2729;50.056;8.678;2022-09-28T04:36:43;98230.44;;;10.64;100.00
5413;BME280;2729;50.056;8.678;2022-09-28T04:39:14;98228.28;;;10.56;100.00
5413;BME280;2729;50.056;8.678;2022-09-28T04:41:42;98233.97;;;10.63;100.00
5413;BME280;2729;50.056;8.678;2022-09-28T04:44:08;98232.81;;;10.83;100.00
5413;BME280;2729;50.056;8.678;2022-09-28T04:46:34;98237.06;;;10.70;100.00
5413;BME280;2729;50.056;8.678;2022-09-28T04:49:21;98237.06;;;10.70;100.00
5413;BME280;2729;50.056;8.678;2022-09-28T04:51:56;98241.56;;;10.82;100.00
5413;BME280;2729;50.056;8.678;2022-09-28T04:54:22;98238.19;;;10.66;100.00
5413;BME280;2729;50.056;8.678;2022-09-28T04:56:48;98242.28;;;10.70;100.00
5413;BME280;2729;50.056;8.678;2022-09-28T04:59:14;98243.25;;;10.83;100.00
5413;BME280;2729;50.056;8.678;2022-09-28T05:01:41;98240.63;;;10.69;100.00
5413;BME280;2729;50.056;8.678;2022-09-28T05:04:19;98239.63;;;10.85;100.00
5413;BME280;2729;50.056;8.678;2022-09-28T05:07:03;98239.88;;;10.67;100.00
5413;BME280;2729;50.056;8.678;2022-09-28T05:09:29;98243.41;;;10.66;100.00
5413;BME280;2729;50.056;8.678;2022-09-28T05:11:55;98243.19;;;10.54;100.00
5413;BME280;2729;50.056;8.678;2022-09-28T05:14:24;98245.97;;;10.51;100.00
5413;BME280;2729;50.056;8.678;2022-09-28T05:16:51;98245.44;;;10.60;100.00
5413;BME280;2729;50.056;8.678;2022-09-28T05:19:22;98251.50;;;10.61;100.00
5413;BME280;2729;50.056;8.678;2022-09-28T05:21:50;98248.78;;;10.62;100.00
5413;BME280;2729;50.056;8.678;2022-09-28T05:24:16;98253.25;;;10.60;100.00
5413;BME280;2729;50.056;8.678;2022-09-28T05:26:46;98259.66;;;10.55;100.00
5413;BME280;2729;50.056;8.678;2022-09-28T05:29:13;98265.16;;;10.50;100.00
5413;BME280;2729;50.056;8.678;2022-09-28T05:32:04;98259.22;;;10.62;100.00
5413;BME280;2729;50.056;8.678;2022-09-28T05:34:56;98261.84;;;10.62;100.00
5413;BME280;2729;50.056;8.678;2022-09-28T05:37:26;98269.50;;;10.66;100.00
5413;BME280;2729;50.056;8.678;2022-09-28T05:39:52;98268.84;;;10.46;100.00
5413;BME280;2729;50.056;8.678;2022-09-28T05:42:19;98277.16;;;10.53;100.00
5413;BME280;2729;50.056;8.678;2022-09-28T05:44:45;98277.44;;;10.48;100.00
5413;BME280;2729;50.056;8.678;2022-09-28T05:47:11;98282.25;;;10.40;100.00
5413;BME280;2729;50.056;8.678;2022-09-28T05:49:38;98283.31;;;10.36;100.00
5413;BME280;2729;50.056;8.678;2022-09-28T05:52:04;98281.16;;;10.44;100.00
5413;BME280;2729;50.056;8.678;2022-09-28T05:54:34;98281.63;;;10.51;100.00
5413;BME280;2729;50.056;8.678;2022-09-28T05:57:00;98280.97;;;10.47;100.00
5413;BME280;2729;50.056;8.678;2022-09-28T05:59:26;98280.13;;;10.31;100.00
5413;BME280;2729;50.056;8.678;2022-09-28T06:01:52;98282.47;;;10.36;100.00
5413;BME280;2729;50.056;8.678;2022-09-28T06:04:17;98284.31;;;10.34;100.00
5413;BME280;2729;50.056;8.678;2022-09-28T06:06:46;98282.72;;;10.31;100.00
5413;BME280;2729;50.056;8.678;2022-09-28T06:09:12;98287.69;;;10.51;100.00
5413;BME280;2729;50.056;8.678;2022-09-28T06:12:06;98288.34;;;10.55;100.00
5413;BME280;2729;50.056;8.678;2022-09-28T06:14:53;98281.47;;;10.54;100.00
5413;BME280;2729;50.056;8.678;2022-09-28T06:17:20;98288.09;;;10.59;100.00
5413;BME280;2729;50.056;8.678;2022-09-28T06:19:54;98295.34;;;10.54;100.00
5413;BME280;2729;50.056;8.678;2022-09-28T06:22:43;98295.00;;;10.60;100.00
5413;BME280;2729;50.056;8.678;2022-09-28T06:25:10;98303.00;;;10.57;100.00
5413;BME280;2729;50.056;8.678;2022-09-28T06:27:38;98306.19;;;10.62;100.00
5413;BME280;2729;50.056;8.678;2022-09-28T06:30:06;98297.16;;;10.68;100.00
5413;BME280;2729;50.056;8.678;2022-09-28T06:32:32;98307.31;;;10.88;100.00
5413;BME280;2729;50.056;8.678;2022-09-28T06:34:58;98307.03;;;10.93;100.00
5413;BME280;2729;50.056;8.678;2022-09-28T06:37:25;98309.38;;;10.68;100.00
5413;BME280;2729;50.056;8.678;2022-09-28T06:39:52;98316.06;;;10.87;100.00
5413;BME280;2729;50.056;8.678;2022-09-28T06:42:18;98318.84;;;10.84;100.00
5413;BME280;2729;50.056;8.678;2022-09-28T06:45:03;98323.41;;;10.81;100.00
5413;BME280;2729;50.056;8.678;2022-09-28T06:47:58;98323.03;;;10.87;100.00
5413;BME280;2729;50.056;8.678;2022-09-28T06:50:39;98332.91;;;10.82;100.00
5413;BME280;2729;50.056;8.678;2022-09-28T06:53:26;98336.66;;;10.92;100.00
5413;BME280;2729;50.056;8.678;2022-09-28T06:55:59;98333.84;;;11.11;100.00
5413;BME280;2729;50.056;8.678;2022-09-28T06:58:27;98339.44;;;11.19;100.00
5413;BME280;2729;50.056;8.678;2022-09-28T07:00:56;98344.41;;;11.23;100.00
5413;BME280;2729;50.056;8.678;2022-09-28T07:03:26;98343.84;;;11.18;100.00
5413;BME280;2729;50.056;8.678;2022-09-28T07:06:10;98350.91;;;11.16;100.00
5413;BME280;2729;50.056;8.678;2022-09-28T07:08:55;98350.09;;;11.30;100.00
5413;BME280;2729;50.056;8.678;2022-09-28T07:11:37;98348.38;;;11.45;100.00
5413;BME280;2729;50.056;8.678;2022-09-28T07:14:10;98348.81;;;11.37;100.00
5413;BME280;2729;50.056;8.678;2022-09-28T07:16:37;98362.47;;;11.56;100.00
5413;BME280;2729;50.056;8.678;2022-09-28T07:19:03;98364.41;;;11.53;100.00
5413;BME280;2729;50.056;8.678;2022-09-28T07:21:29;98365.78;;;11.30;100.00
5413;BME280;2729;50.056;8.678;2022-09-28T07:23:56;98365.25;;;11.53;100.00
5413;BME280;2729;50.056;8.678;2022-09-28T07:26:22;98370.94;;;11.46;100.00
5413;BME280;2729;50.056;8.678;2022-09-28T07:28:57;98373.88;;;11.70;100.00
5413;BME280;2729;50.056;8.678;2022-09-28T07:31:31;98385.72;;;11.75;100.00
5413;BME280;2729;50.056;8.678;2022-09-28T07:34:19;98387.78;;;11.70;100.00
5413;BME280;2729;50.056;8.678;2022-09-28T07:37:02;98389.19;;;11.76;100.00
5413;BME280;2729;50.056;8.678;2022-09-28T07:39:28;98397.25;;;11.87;100.00
5413;BME280;2729;50.056;8.678;2022-09-28T07:41:54;98403.41;;;12.00;100.00
5413;BME280;2729;50.056;8.678;2022-09-28T07:44:21;98412.28;;;12.26;100.00
5413;BME280;2729;50.056;8.678;2022-09-28T07:46:51;98406.75;;;12.31;100.00
5413;BME280;2729;50.056;8.678;2022-09-28T07:49:23;98418.06;;;11.88;100.00
5413;BME280;2729;50.056;8.678;2022-09-28T07:52:07;98416.94;;;11.93;100.00
5413;BME280;2729;50.056;8.678;2022-09-28T07:54:41;98412.94;;;11.87;100.00
5413;BME280;2729;50.056;8.678;2022-09-28T07:57:30;98413.69;;;12.03;100.00
5413;BME280;2729;50.056;8.678;2022-09-28T08:00:21;98426.53;;;11.48;100.00
5413;BME280;2729;50.056;8.678;2022-09-28T08:02:47;98437.94;;;11.47;100.00
5413;BME280;2729;50.056;8.678;2022-09-28T08:05:18;98429.69;;;11.39;100.00
5413;BME280;2729;50.056;8.678;2022-09-28T08:07:44;98436.88;;;11.35;100.00
5413;BME280;2729;50.056;8.678;2022-09-28T08:10:10;98436.03;;;11.35;100.00
5413;BME280;2729;50.056;8.678;2022-09-28T08:12:58;98435.44;;;11.59;100.00
5413;BME280;2729;50.056;8.678;2022-09-28T08:15:37;98448.59;;;11.58;100.00
5413;BME280;2729;50.056;8.678;2022-09-28T08:18:10;98446.56;;;11.63;100.00
5413;BME280;2729;50.056;8.678;2022-09-28T08:20:36;98445.75;;;11.47;100.00
5413;BME280;2729;50.056;8.678;2022-09-28T08:23:22;98458.44;;;11.39;100.00
5413;BME280;2729;50.056;8.678;2022-09-28T08:25:50;98455.16;;;11.65;100.00
5413;BME280;2729;50.056;8.678;2022-09-28T08:28:19;98456.03;;;11.80;100.00
5413;BME280;2729;50.056;8.678;2022-09-28T08:30:47;98458.06;;;11.75;100.00
5413;BME280;2729;50.056;8.678;2022-09-28T08:33:26;98456.63;;;11.85;100.00
5413;BME280;2729;50.056;8.678;2022-09-28T08:36:26;98456.28;;;12.34;100.00
5413;BME280;2729;50.056;8.678;2022-09-28T08:39:11;98461.94;;;12.69;100.00
5413;BME280;2729;50.056;8.678;2022-09-28T08:42:31;98458.88;;;12.48;100.00
5413;BME280;2729;50.056;8.678;2022-09-28T08:45:22;98460.59;;;12.90;100.00
5413;BME280;2729;50.056;8.678;2022-09-28T08:48:12;98462.84;;;12.82;100.00
5413;BME280;2729;50.056;8.678;2022-09-28T08:51:27;98467.41;;;13.07;100.00
5413;BME280;2729;50.056;8.678;2022-09-28T08:54:36;98471.03;;;13.04;100.00
5413;BME280;2729;50.056;8.678;2022-09-28T08:57:18;98468.97;;;13.09;100.00
5413;BME280;2729;50.056;8.678;2022-09-28T08:59:53;98472.66;;;12.78;100.00
5413;BME280;2729;50.056;8.678;2022-09-28T09:02:29;98470.50;;;12.85;100.00
5413;BME280;2729;50.056;8.678;2022-09-28T09:05:11;98472.13;;;13.29;100.00
5413;BME280;2729;50.056;8.678;2022-09-28T09:08:14;98470.59;;;13.39;100.00
5413;BME280;2729;50.056;8.678;2022-09-28T09:11:01;98469.38;;;13.57;100.00
5413;BME280;2729;50.056;8.678;2022-09-28T09:13:50;98466.06;;;13.80;100.00
5413;BME280;2729;50.056;8.678;2022-09-28T09:16:29;98473.53;;;13.47;100.00
5413;BME280;2729;50.056;8.678;2022-09-28T09:19:42;98471.28;;;13.28;100.00
5413;BME280;2729;50.056;8.678;2022-09-28T09:22:33;98473.31;;;13.37;100.00
5413;BME280;2729;50.056;8.678;2022-09-28T09:31:07;98476.75;;;13.38;100.00
5413;BME280;2729;50.056;8.678;2022-09-28T09:34:21;98479.91;;;13.82;100.00
5413;BME280;2729;50.056;8.678;2022-09-28T09:37:25;98476.88;;;13.36;100.00
5413;BME280;2729;50.056;8.678;2022-09-28T09:46:10;98482.66;;;13.94;100.00
5413;BME280;2729;50.056;8.678;2022-09-28T09:49:06;98486.72;;;13.72;100.00
5413;BME280;2729;50.056;8.678;2022-09-28T09:54:44;98478.56;;;13.90;100.00
5413;BME280;2729;50.056;8.678;2022-09-28T09:57:38;98487.47;;;14.38;100.00
5413;BME280;2729;50.056;8.678;2022-09-28T10:00:23;98482.00;;;13.90;100.00
5413;BME280;2729;50.056;8.678;2022-09-28T10:03:03;98486.63;;;13.87;100.00
5413;BME280;2729;50.056;8.678;2022-09-28T10:05:37;98483.59;;;14.31;100.00
5413;BME280;2729;50.056;8.678;2022-09-28T10:10:47;98483.19;;;14.37;100.00
5413;BME280;2729;50.056;8.678;2022-09-28T10:13:15;98479.69;;;13.86;100.00
5413;BME280;2729;50.056;8.678;2022-09-28T10:15:43;98476.78;;;13.90;100.00
5413;BME280;2729;50.056;8.678;2022-09-28T10:18:18;98478.56;;;13.90;100.00
5413;BME280;2729;50.056;8.678;2022-09-28T10:21:03;98487.03;;;13.80;100.00
5413;BME280;2729;50.056;8.678;2022-09-28T10:23:50;98490.81;;;13.37;100.00
5413;BME280;2729;50.056;8.678;2022-09-28T10:26:27;98491.03;;;13.46;100.00
5413;BME280;2729;50.056;8.678;2022-09-28T10:29:00;98495.09;;;13.77;100.00
5413;BME280;2729;50.056;8.678;2022-09-28T10:31:39;98495.75;;;13.81;100.00
5413;BME280;2729;50.056;8.678;2022-09-28T10:34:28;98495.66;;;14.08;100.00
5413;BME280;2729;50.056;8.678;2022-09-28T10:36:58;98496.50;;;13.96;100.00
5413;BME280;2729;50.056;8.678;2022-09-28T10:39:50;98500.28;;;13.92;100.00
5413;BME280;2729;50.056;8.678;2022-09-28T10:42:29;98498.50;;;14.18;100.00
5413;BME280;2729;50.056;8.678;2022-09-28T10:45:03;98501.03;;;14.32;100.00
5413;BME280;2729;50.056;8.678;2022-09-28T10:47:43;98501.03;;;14.32;100.00
5413;BME280;2729;50.056;8.678;2022-09-28T10:50:20;98501.34;;;14.40;100.00
5413;BME280;2729;50.056;8.678;2022-09-28T10:52:48;98512.69;;;14.28;100.00
5413;BME280;2729;50.056;8.678;2022-09-28T10:55:34;98513.41;;;14.04;100.00
5413;BME280;2729;50.056;8.678;2022-09-28T10:58:24;98514.25;;;14.30;100.00
5413;BME280;2729;50.056;8.678;2022-09-28T11:00:51;98511.84;;;14.65;100.00
5413;BME280;2729;50.056;8.678;2022-09-28T11:03:25;98506.28;;;15.06;100.00
5413;BME280;2729;50.056;8.678;2022-09-28T11:05:56;98517.38;;;14.86;100.00
5413;BME280;2729;50.056;8.678;2022-09-28T11:08:30;98504.69;;;14.67;98.31
5413;BME280;2729;50.056;8.678;2022-09-28T11:11:03;98506.16;;;14.71;97.25
5413;BME280;2729;50.056;8.678;2022-09-28T11:13:37;98507.31;;;14.80;100.00
5413;BME280;2729;50.056;8.678;2022-09-28T11:16:06;98501.69;;;14.97;100.00
5413;BME280;2729;50.056;8.678;2022-09-28T11:18:34;98506.78;;;14.88;100.00
5413;BME280;2729;50.056;8.678;2022-09-28T11:21:20;98505.19;;;15.22;100.00
5413;BME280;2729;50.056;8.678;2022-09-28T11:24:06;98495.94;;;14.92;100.00
5413;BME280;2729;50.056;8.678;2022-09-28T11:26:48;98494.09;;;15.05;100.00
5413;BME280;2729;50.056;8.678;2022-09-28T11:29:23;98498.78;;;14.89;96.78
5413;BME280;2729;50.056;8.678;2022-09-28T11:32:11;98495.81;;;14.94;100.00
5413;BME280;2729;50.056;8.678;2022-09-28T11:34:58;98490.69;;;14.92;87.85
5413;BME280;2729;50.056;8.678;2022-09-28T11:38:02;98490.47;;;15.43;90.10
5413;BME280;2729;50.056;8.678;2022-09-28T11:41:29;98487.69;;;15.33;89.09
5413;BME280;2729;50.056;8.678;2022-09-28T11:44:12;98485.00;;;15.46;97.86
5413;BME280;2729;50.056;8.678;2022-09-28T11:49:32;98493.13;;;15.43;95.69
5413;BME280;2729;50.056;8.678;2022-09-28T11:52:07;98487.78;;;15.08;91.24
5413;BME280;2729;50.056;8.678;2022-09-28T11:54:47;98490.78;;;14.91;96.08
5413;BME280;2729;50.056;8.678;2022-09-28T11:57:20;98496.72;;;15.05;89.74
5413;BME280;2729;50.056;8.678;2022-09-28T12:00:01;98487.78;;;15.08;87.59
5413;BME280;2729;50.056;8.678;2022-09-28T12:02:54;98492.78;;;15.60;92.88
5413;BME280;2729;50.056;8.678;2022-09-28T12:05:31;98494.69;;;15.45;90.80
5413;BME280;2729;50.056;8.678;2022-09-28T12:08:29;98491.88;;;15.36;93.23
5413;BME280;2729;50.056;8.678;2022-09-28T12:11:18;98508.50;;;15.36;96.36
5413;BME280;2729;50.056;8.678;2022-09-28T12:14:18;98494.41;;;15.37;98.24
5413;BME280;2729;50.056;8.678;2022-09-28T12:16:56;98492.94;;;15.33;100.00
5413;BME280;2729;50.056;8.678;2022-09-28T12:19:59;98500.88;;;15.21;91.47
5413;BME280;2729;50.056;8.678;2022-09-28T12:22:34;98500.63;;;15.00;94.61
5413;BME280;2729;50.056;8.678;2022-09-28T12:25:03;98500.06;;;15.44;91.36
5413;BME280;2729;50.056;8.678;2022-09-28T12:27:50;98505.31;;;15.20;91.03
5413;BME280;2729;50.056;8.678;2022-09-28T12:30:19;98502.06;;;15.17;90.03
5413;BME280;2729;50.056;8.678;2022-09-28T12:33:00;98497.25;;;15.10;88.60
5413;BME280;2729;50.056;8.678;2022-09-28T12:39:27;98498.25;;;15.44;91.51
5413;BME280;2729;50.056;8.678;2022-09-28T12:44:46;98497.91;;;15.49;84.96
5413;BME280;2729;50.056;8.678;2022-09-28T12:52:51;98503.88;;;15.03;83.84
5413;BME280;2729;50.056;8.678;2022-09-28T13:06:44;98505.50;;;14.93;91.40
5413;BME280;2729;50.056;8.678;2022-09-28T13:09:15;98510.38;;;15.10;93.08
5413;BME280;2729;50.056;8.678;2022-09-28T13:11:51;98513.19;;;15.44;92.36
5413;BME280;2729;50.056;8.678;2022-09-28T13:22:27;98512.53;;;15.53;94.73
5413;BME280;2729;50.056;8.678;2022-09-28T13:24:56;98499.50;;;16.11;99.03
5413;BME280;2729;50.056;8.678;2022-09-28T13:27:32;98512.34;;;15.80;88.58
5413;BME280;2729;50.056;8.678;2022-09-28T13:30:02;98498.16;;;16.05;90.95
5413;BME280;2729;50.056;8.678;2022-09-28T13:32:30;98507.78;;;15.58;87.40
5413;BME280;2729;50.056;8.678;2022-09-28T13:34:58;98508.81;;;15.68;91.88
5413;BME280;2729;50.056;8.678;2022-09-28T13:37:27;98501.72;;;15.93;88.44
5413;BME280;2729;50.056;8.678;2022-09-28T13:39:54;98507.75;;;16.06;89.57
5413;BME280;2729;50.056;8.678;2022-09-28T13:42:25;98502.66;;;15.81;90.42
5413;BME280;2729;50.056;8.678;2022-09-28T13:45:14;98502.84;;;16.13;91.15
5413;BME280;2729;50.056;8.678;2022-09-28T13:47:54;98499.06;;;15.82;83.96
5413;BME280;2729;50.056;8.678;2022-09-28T13:53:35;98499.09;;;15.93;88.45
5413;BME280;2729;50.056;8.678;2022-09-28T13:56:26;98500.59;;;16.19;92.12
5413;BME280;2729;50.056;8.678;2022-09-28T13:59:28;98501.44;;;15.73;88.44
5413;BME280;2729;50.056;8.678;2022-09-28T14:02:12;98507.19;;;15.79;87.80
5413;BME280;2729;50.056;8.678;2022-09-28T14:05:04;98503.34;;;15.71;89.42
5413;BME280;2729;50.056;8.678;2022-09-28T14:10:22;98509.38;;;15.61;92.23
5413;BME280;2729;50.056;8.678;2022-09-28T14:12:51;98508.81;;;15.68;85.01
5413;BME280;2729;50.056;8.678;2022-09-28T14:20:45;98515.72;;;15.93;83.42
5413;BME280;2729;50.056;8.678;2022-09-28T14:23:27;98511.75;;;15.88;86.40
5413;BME280;2729;50.056;8.678;2022-09-28T14:26:18;98505.69;;;15.63;88.14
5413;BME280;2729;50.056;8.678;2022-09-28T14:29:00;98495.16;;;15.98;91.04
5413;BME280;2729;50.056;8.678;2022-09-28T14:31:28;98497.88;;;15.86;89.04
5413;BME280;2729;50.056;8.678;2022-09-28T14:33:59;98509.00;;;15.89;88.92
5413;BME280;2729;50.056;8.678;2022-09-28T14:36:33;98502.53;;;15.82;87.25
5413;BME280;2729;50.056;8.678;2022-09-28T14:39:28;98515.16;;;16.01;86.21
5413;BME280;2729;50.056;8.678;2022-09-28T14:42:17;98509.50;;;15.94;89.38
5413;BME280;2729;50.056;8.678;2022-09-28T14:47:34;98506.84;;;16.40;84.47
5413;BME280;2729;50.056;8.678;2022-09-28T14:50:35;98515.34;;;15.87;87.51
5413;BME280;2729;50.056;8.678;2022-09-28T14:53:22;98515.97;;;15.90;90.15
5413;BME280;2729;50.056;8.678;2022-09-28T14:55:54;98515.22;;;15.88;86.85
5413;BME280;2729;50.056;8.678;2022-09-28T14:58:27;98517.72;;;15.79;85.93
5413;BME280;2729;50.056;8.678;2022-09-28T15:01:00;98519.50;;;15.78;92.52
5413;BME280;2729;50.056;8.678;2022-09-28T15:03:28;98520.47;;;15.77;100.00
5413;BME280;2729;50.056;8.678;2022-09-28T15:05:55;98526.44;;;15.42;93.09
5413;BME280;2729;50.056;8.678;2022-09-28T15:08:21;98528.75;;;15.47;97.89
5413;BME280;2729;50.056;8.678;2022-09-28T15:10:49;98538.25;;;15.37;100.00
5413;BME280;2729;50.056;8.678;2022-09-28T15:13:25;98543.00;;;14.95;100.00
5413;BME280;2729;50.056;8.678;2022-09-28T15:15:55;98545.31;;;15.00;100.00
5413;BME280;2729;50.056;8.678;2022-09-28T15:21:00;98532.13;;;15.12;100.00
5413;BME280;2729;50.056;8.678;2022-09-28T15:23:39;98541.97;;;14.85;100.00